Time;durP1;ratioP1;P1;durP2;ratioP2;P2;SDS_P1;SDS_P2;PMS_P1;PMS_P2;Temp;Humidity;BMP_temperature;BMP_pressure;BME280_temperature;BME280_humidity;BME280_pressure;Samples;Min_cycle;Max_cycle;Signal;HPM_P1;HPM_P2
2022/08/07 00:01:18;;;;;;;10.95;7.40;;;13.10;42.60;;;;;;5013816;28;20202;-61
2022/08/07 00:03:46;;;;;;;10.18;7.88;;;13.10;41.30;;;;;;5015708;28;20233;-60
2022/08/07 00:06:14;;;;;;;11.88;7.75;;;13.00;37.50;;;;;;4999157;28;20217;-60
2022/08/07 00:08:41;;;;;;;10.88;7.38;;;13.00;40.10;;;;;;5016749;28;20345;-60
2022/08/07 00:11:08;;;;;;;10.05;7.75;;;13.00;39.90;;;;;;5014031;28;20190;-61
2022/08/07 00:13:36;;;;;;;13.93;8.13;;;12.80;42.70;;;;;;5006802;28;20198;-61
2022/08/07 00:16:04;;;;;;;15.02;8.18;;;12.90;40.60;;;;;;5012609;28;20616;-60
2022/08/07 00:18:32;;;;;;;13.35;7.75;;;12.90;35.40;;;;;;5014289;28;20761;-60
2022/08/07 00:21:02;;;;;;;12.15;8.82;;;12.90;35.00;;;;;;4989635;28;20213;-61
2022/08/07 00:23:31;;;;;;;11.60;8.48;;;12.80;38.10;;;;;;5013730;28;20316;-60
2022/08/07 00:25:58;;;;;;;12.20;7.97;;;12.80;36.80;;;;;;5010932;28;20209;-60
2022/08/07 00:28:25;;;;;;;10.73;7.38;;;12.80;31.50;;;;;;5006513;28;20236;-61
2022/08/07 00:30:52;;;;;;;10.77;7.82;;;12.80;31.60;;;;;;5006114;28;20221;-60
2022/08/07 00:33:21;;;;;;;10.70;7.05;;;12.70;29.10;;;;;;5018835;28;20591;-61
2022/08/07 00:35:47;;;;;;;8.95;7.30;;;13.10;37.60;;;;;;4985106;28;20206;-61
2022/08/07 00:38:14;;;;;;;11.55;7.63;;;12.80;34.90;;;;;;5019762;28;20198;-61
2022/08/07 00:40:42;;;;;;;12.80;8.10;;;12.70;43.00;;;;;;5016281;28;20285;-61
2022/08/07 00:43:10;;;;;;;11.93;7.75;;;12.70;45.30;;;;;;5019162;28;20688;-61
2022/08/07 00:45:38;;;;;;;10.38;7.65;;;12.70;46.20;;;;;;5007550;28;20198;-61
2022/08/07 00:48:05;;;;;;;9.20;7.45;;;12.70;46.00;;;;;;5018602;28;20232;-61
2022/08/07 00:50:32;;;;;;;10.23;7.82;;;12.60;36.90;;;;;;5006743;28;20209;-61
2022/08/07 00:52:59;;;;;;;9.93;6.90;;;12.60;42.00;;;;;;4992438;28;20206;-60
2022/08/07 00:55:26;;;;;;;14.85;7.40;;;12.60;42.10;;;;;;5019377;28;20206;-61
2022/08/07 00:57:54;;;;;;;9.65;6.72;;;12.50;36.40;;;;;;5015415;28;20213;-60
2022/08/07 01:00:21;;;;;;;9.80;7.07;;;12.30;42.80;;;;;;5017748;28;20201;-61
2022/08/07 01:02:49;;;;;;;10.05;7.53;;;12.30;43.00;;;;;;5005297;28;20206;-60
2022/08/07 01:05:17;;;;;;;9.20;7.20;;;12.40;52.00;;;;;;5007425;28;20276;-61
2022/08/07 01:07:44;;;;;;;9.20;6.72;;;12.30;49.30;;;;;;4993710;28;20230;-61
2022/08/07 01:10:11;;;;;;;9.82;7.20;;;12.20;56.50;;;;;;5017463;28;20206;-60
2022/08/07 01:12:40;;;;;;;8.38;6.60;;;12.30;55.30;;;;;;5015636;28;20194;-61
2022/08/07 01:15:09;;;;;;;9.35;7.07;;;12.30;55.50;;;;;;5017459;28;20202;-61
2022/08/07 01:17:37;;;;;;;11.32;6.40;;;12.30;56.30;;;;;;5008396;28;20237;-60
2022/08/07 01:20:07;;;;;;;9.15;6.60;;;12.20;52.90;;;;;;5005947;28;20961;-61
2022/08/07 01:22:36;;;;;;;12.27;7.10;;;12.00;65.10;;;;;;5008635;28;20209;-61
2022/08/07 01:25:04;;;;;;;10.65;7.07;;;12.30;60.50;;;;;;5007368;28;20209;-60
2022/08/07 01:27:31;;;;;;;9.35;7.00;;;12.30;57.70;;;;;;5016330;28;20218;-60
2022/08/07 01:29:58;;;;;;;9.20;7.22;;;11.50;55.60;;;;;;5015726;28;20206;-60
2022/08/07 01:32:25;;;;;;;10.43;7.13;;;12.20;62.20;;;;;;5009365;28;20208;-60
2022/08/07 01:34:53;;;;;;;10.38;7.72;;;12.50;63.70;;;;;;5015487;28;20205;-60
2022/08/07 01:37:20;;;;;;;8.52;6.72;;;12.30;60.80;;;;;;5016822;28;20201;-61
2022/08/07 01:39:49;;;;;;;9.60;7.05;;;12.30;59.80;;;;;;4991554;28;20217;-61
2022/08/07 01:42:16;;;;;;;9.05;6.93;;;12.20;59.40;;;;;;5016350;28;20206;-60
2022/08/07 01:44:44;;;;;;;9.60;7.07;;;12.40;60.80;;;;;;5014493;28;20206;-60
2022/08/07 01:47:11;;;;;;;9.35;7.28;;;12.30;57.40;;;;;;5009154;28;20203;-60
2022/08/07 01:49:37;;;;;;;10.85;6.50;;;12.30;60.60;;;;;;5016607;28;21010;-60
2022/08/07 01:52:07;;;;;;;10.25;6.65;;;12.20;57.40;;;;;;5016801;28;20401;-60
2022/08/07 01:54:39;;;;;;;11.82;6.28;;;11.80;50.50;;;;;;5005888;28;20205;-60
2022/08/07 01:57:11;;;;;;;8.10;5.72;;;12.10;45.80;;;;;;5007626;28;20209;-60
2022/08/07 01:59:43;;;;;;;6.70;5.07;;;12.10;51.20;;;;;;5012939;28;20194;-60
2022/08/07 02:02:17;;;;;;;6.00;4.88;;;12.00;42.00;;;;;;5003119;28;20405;-61
2022/08/07 02:04:51;;;;;;;7.75;4.50;;;11.80;41.10;;;;;;5017012;28;20282;-60
2022/08/07 02:07:20;;;;;;;7.50;4.55;;;11.90;51.10;;;;;;5015428;28;20198;-60
2022/08/07 02:09:49;;;;;;;10.10;5.25;;;11.80;49.80;;;;;;5019135;28;20198;-61
2022/08/07 02:12:19;;;;;;;10.10;5.88;;;11.80;52.60;;;;;;4997141;28;20213;-60
2022/08/07 02:14:49;;;;;;;8.38;5.60;;;11.90;56.50;;;;;;5017667;28;20202;-61
2022/08/07 02:17:17;;;;;;;6.88;5.38;;;11.90;56.50;;;;;;5012955;28;21565;-60
2022/08/07 02:19:48;;;;;;;6.63;4.57;;;11.90;54.80;;;;;;5007351;28;20202;-60
2022/08/07 02:22:18;;;;;;;8.27;5.20;;;11.80;49.70;;;;;;5013214;28;20198;-60
2022/08/07 02:24:47;;;;;;;6.03;4.68;;;11.70;50.30;;;;;;5002916;28;20198;-60
2022/08/07 02:27:20;;;;;;;4.68;3.65;;;11.60;52.30;;;;;;4994839;28;20221;-60
2022/08/07 02:29:48;;;;;;;4.57;3.17;;;11.40;32.90;;;;;;5002460;28;20209;-60
2022/08/07 02:32:16;;;;;;;5.03;2.78;;;11.20;28.00;;;;;;5015005;28;20221;-60
2022/08/07 02:34:44;;;;;;;4.50;3.47;;;10.80;33.20;;;;;;5006055;28;20206;-60
2022/08/07 02:37:12;;;;;;;4.03;3.30;;;11.10;30.90;;;;;;5017008;28;20660;-60
2022/08/07 02:39:43;;;;;;;5.63;3.70;;;11.20;51.60;;;;;;5015459;28;20203;-60
2022/08/07 02:42:10;;;;;;;8.90;4.88;;;11.20;53.20;;;;;;4995706;28;20232;-60
2022/08/07 02:44:41;;;;;;;4.90;3.90;;;11.30;57.50;;;;;;5016642;28;20194;-61
2022/08/07 02:47:09;;;;;;;6.10;4.10;;;11.30;50.00;;;;;;5015282;28;20202;-61
2022/08/07 02:49:36;;;;;;;5.40;4.35;;;11.20;47.10;;;;;;5007248;28;20585;-60
2022/08/07 02:52:07;;;;;;;6.20;4.45;;;11.20;50.40;;;;;;5014727;28;20661;-61
2022/08/07 02:54:37;;;;;;;10.13;5.13;;;11.20;53.10;;;;;;5009329;28;20202;-60
2022/08/07 02:57:05;;;;;;;7.35;5.32;;;11.20;57.50;;;;;;5013610;28;20198;-60
2022/08/07 02:59:34;;;;;;;8.95;5.93;;;11.30;62.80;;;;;;4994206;28;20217;-61
2022/08/07 03:02:03;;;;;;;8.70;6.07;;;11.20;65.60;;;;;;5014715;28;20202;-61
2022/08/07 03:04:30;;;;;;;8.25;5.72;;;11.20;62.70;;;;;;5014335;28;20202;-60
2022/08/07 03:06:59;;;;;;;7.57;5.05;;;11.30;60.90;;;;;;5007604;28;21112;-60
2022/08/07 03:09:27;;;;;;;6.95;4.85;;;11.40;62.50;;;;;;5015746;28;20222;-60
2022/08/07 03:11:54;;;;;;;7.38;4.85;;;11.40;58.60;;;;;;5011254;28;20201;-60
2022/08/07 03:14:22;;;;;;;12.95;5.07;;;11.40;62.40;;;;;;4994468;28;20849;-60
2022/08/07 03:16:49;;;;;;;7.82;5.50;;;11.20;60.00;;;;;;5014172;28;20286;-60
2022/08/07 03:19:17;;;;;;;8.80;5.75;;;11.40;58.00;;;;;;5015991;28;20202;-60
2022/08/07 03:21:44;;;;;;;9.93;5.90;;;11.40;65.10;;;;;;5003354;28;20202;-60
2022/08/07 03:24:11;;;;;;;8.10;5.90;;;11.40;59.50;;;;;;5008132;28;20833;-60
2022/08/07 03:26:39;;;;;;;6.47;4.97;;;11.40;52.90;;;;;;5012941;28;20198;-61
2022/08/07 03:29:07;;;;;;;11.55;5.32;;;11.20;50.60;;;;;;4995321;28;21153;-60
2022/08/07 03:31:37;;;;;;;8.05;5.30;;;11.20;51.80;;;;;;5007144;28;20759;-60
2022/08/07 03:34:06;;;;;;;8.52;5.55;;;11.20;53.10;;;;;;5016986;28;20198;-60
2022/08/07 03:36:36;;;;;;;7.35;5.32;;;11.20;51.30;;;;;;5006352;28;20206;-60
2022/08/07 03:39:07;;;;;;;5.72;4.60;;;11.50;50.70;;;;;;5014230;28;20201;-60
2022/08/07 03:41:35;;;;;;;8.02;5.28;;;11.10;46.00;;;;;;5010536;28;20202;-60
2022/08/07 03:44:02;;;;;;;7.22;5.22;;;10.10;49.60;;;;;;4997712;28;20572;-61
2022/08/07 03:46:30;;;;;;;5.50;4.63;;;11.10;44.00;;;;;;5006264;28;20202;-61
2022/08/07 03:48:57;;;;;;;7.00;5.25;;;11.10;45.10;;;;;;5013091;28;20236;-60
2022/08/07 03:51:26;;;;;;;6.68;4.95;;;11.00;43.70;;;;;;5011693;28;20198;-60
2022/08/07 03:53:54;;;;;;;5.90;4.53;;;11.00;38.50;;;;;;5013117;28;20193;-60
2022/08/07 03:56:23;;;;;;;8.05;5.20;;;13.10;53.20;;;;;;5013648;28;20202;-61
2022/08/07 03:58:50;;;;;;;6.90;5.15;;;11.00;50.90;;;;;;5009094;28;20202;-60
2022/08/07 04:01:19;;;;;;;6.82;4.95;;;11.10;55.10;;;;;;4988046;28;20207;-61
2022/08/07 04:03:46;;;;;;;7.90;5.97;;;11.10;54.70;;;;;;5014634;28;20392;-60
2022/08/07 04:06:13;;;;;;;7.85;5.70;;;11.30;59.90;;;;;;5003830;28;20214;-60
2022/08/07 04:08:43;;;;;;;7.82;5.97;;;11.20;59.20;;;;;;5014808;28;20241;-60
2022/08/07 04:11:13;;;;;;;8.50;6.20;;;11.30;63.60;;;;;;5012145;28;20202;-60
2022/08/07 04:13:40;;;;;;;9.30;6.18;;;11.30;67.00;;;;;;5012837;28;20205;-60
2022/08/07 04:16:07;;;;;;;11.15;6.65;;;11.30;75.70;;;;;;4990919;28;21916;-61
2022/08/07 04:18:34;;;;;;;9.13;5.45;;;10.70;69.70;;;;;;5012400;28;20659;-61
2022/08/07 04:21:01;;;;;;;7.28;4.95;;;11.40;54.50;;;;;;5012865;28;20194;-60
2022/08/07 04:23:28;;;;;;;6.07;4.50;;;11.30;52.80;;;;;;5006458;28;20202;-60
2022/08/07 04:25:56;;;;;;;6.32;4.78;;;11.20;46.60;;;;;;5014508;28;20280;-61
2022/08/07 04:28:24;;;;;;;8.25;5.07;;;11.00;42.40;;;;;;5015145;28;20232;-60
2022/08/07 04:30:51;;;;;;;7.45;4.38;;;10.80;44.30;;;;;;5012685;28;20202;-60
2022/08/07 04:33:18;;;;;;;10.35;5.53;;;10.80;49.20;;;;;;4991810;28;20220;-60
2022/08/07 04:35:46;;;;;;;11.38;6.10;;;10.90;65.40;;;;;;5015362;28;20212;-60
2022/08/07 04:38:13;;;;;;;10.35;6.22;;;10.80;66.90;;;;;;5001692;28;20210;-61
2022/08/07 04:40:42;;;;;;;8.82;6.57;;;10.90;72.30;;;;;;5014373;28;20206;-60
2022/08/07 04:43:09;;;;;;;9.73;6.25;;;11.00;75.40;;;;;;5013905;28;20225;-60
2022/08/07 04:45:46;;;;;;;10.82;6.60;;;11.00;80.60;;;;;;5015354;28;20210;-60
2022/08/07 04:48:23;;;;;;;9.95;6.18;;;11.30;85.80;;;;;;4992465;28;20229;-60
2022/08/07 04:50:59;;;;;;;9.63;6.68;;;11.10;82.00;;;;;;5014120;28;20206;-60
2022/08/07 04:53:33;;;;;;;8.63;6.22;;;11.10;80.80;;;;;;5011898;28;20205;-60
2022/08/07 04:56:09;;;;;;;13.73;6.30;;;11.00;80.70;;;;;;5002083;28;20206;-61
2022/08/07 04:58:44;;;;;;;10.18;6.50;;;11.10;85.70;;;;;;5015776;28;20201;-60
2022/08/07 05:01:17;;;;;;;11.30;6.97;;;11.00;91.80;;;;;;5006768;28;20213;-60
2022/08/07 05:03:49;;;;;;;11.65;6.68;;;11.20;90.50;;;;;;4992666;28;20210;-60
2022/08/07 05:06:22;;;;;;;11.90;7.35;;;11.30;91.00;;;;;;5011234;28;20198;-60
2022/08/07 05:08:55;;;;;;;10.27;7.10;;;11.30;92.00;;;;;;5014640;28;20222;-60
2022/08/07 05:11:28;;;;;;;8.98;6.63;;;11.40;93.10;;;;;;5004334;28;20715;-60
2022/08/07 05:14:00;;;;;;;9.45;6.60;;;11.50;93.70;;;;;;5012295;28;20198;-60
2022/08/07 05:16:32;;;;;;;8.88;6.28;;;11.60;94.40;;;;;;5017770;28;20202;-61
2022/08/07 05:19:04;;;;;;;9.90;5.60;;;11.80;95.00;;;;;;5002198;28;20237;-61
2022/08/07 05:21:32;;;;;;;7.20;5.25;;;11.80;95.30;;;;;;5016123;28;20629;-61
2022/08/07 05:24:01;;;;;;;7.25;5.78;;;11.90;95.50;;;;;;5013055;28;20203;-60
2022/08/07 05:26:32;;;;;;;7.45;5.65;;;11.90;96.50;;;;;;5011868;28;20206;-61
2022/08/07 05:29:02;;;;;;;8.18;5.50;;;12.30;98.50;;;;;;5008862;28;20241;-60
2022/08/07 05:31:33;;;;;;;4.60;4.13;;;12.20;97.30;;;;;;5017932;28;20206;-60
2022/08/07 05:34:01;;;;;;;6.63;5.03;;;12.30;98.00;;;;;;5016385;28;20198;-60
2022/08/07 05:36:30;;;;;;;8.32;5.50;;;12.50;99.90;;;;;;5000938;28;20840;-60
2022/08/07 05:38:59;;;;;;;6.45;5.68;;;12.50;99.10;;;;;;5017064;28;20202;-60
2022/08/07 05:41:26;;;;;;;5.28;4.78;;;12.50;99.40;;;;;;5016013;28;20205;-61
2022/08/07 05:43:55;;;;;;;8.30;5.28;;;12.60;99.90;;;;;;5009529;28;20202;-61
2022/08/07 05:46:23;;;;;;;6.53;5.68;;;12.70;99.90;;;;;;5016667;28;20194;-60
2022/08/07 05:48:54;;;;;;;7.65;5.97;;;12.90;99.90;;;;;;5014669;28;20320;-60
2022/08/07 05:51:22;;;;;;;7.20;5.60;;;11.60;99.90;;;;;;4999732;28;20272;-60
2022/08/07 05:53:49;;;;;;;8.07;5.95;;;13.10;99.90;;;;;;5016700;28;20644;-60
2022/08/07 05:56:17;;;;;;;9.23;6.50;;;13.20;99.90;;;;;;5008265;28;20782;-61
2022/08/07 05:58:46;;;;;;;8.65;6.43;;;13.40;99.90;;;;;;5008423;28;20207;-61
2022/08/07 06:01:15;;;;;;;10.65;7.38;;;13.50;99.90;;;;;;5008593;28;20209;-61
2022/08/07 06:03:45;;;;;;;10.45;7.55;;;13.60;99.90;;;;;;5016782;28;20194;-61
2022/08/07 06:06:13;;;;;;;10.68;7.40;;;13.70;99.90;;;;;;4996334;28;20203;-61
2022/08/07 06:08:41;;;;;;;10.38;8.43;;;13.80;99.90;;;;;;5016805;28;20230;-61
2022/08/07 06:11:09;;;;;;;12.10;8.48;;;13.80;99.90;;;;;;5013981;28;20208;-61
2022/08/07 06:13:36;;;;;;;12.27;8.65;;;13.90;99.90;;;;;;5008734;28;20628;-61
2022/08/07 06:16:06;;;;;;;12.13;7.78;;;14.00;99.90;;;;;;5013497;28;20206;-61
2022/08/07 06:18:33;;;;;;;11.70;8.48;;;14.10;99.90;;;;;;5010247;28;20242;-61
2022/08/07 06:21:01;;;;;;;11.57;7.47;;;14.20;99.90;;;;;;4997325;28;20213;-61
2022/08/07 06:23:30;;;;;;;10.90;7.97;;;14.70;99.90;;;;;;5014636;28;20586;-61
2022/08/07 06:25:57;;;;;;;11.88;8.52;;;14.20;99.90;;;;;;5013396;28;20656;-61
2022/08/07 06:28:24;;;;;;;10.88;8.32;;;14.50;99.20;;;;;;5014648;28;20209;-61
2022/08/07 06:30:51;;;;;;;11.80;8.48;;;14.30;98.50;;;;;;5006396;28;20328;-60
2022/08/07 06:33:19;;;;;;;13.45;8.88;;;14.40;98.10;;;;;;5017393;28;20202;-61
2022/08/07 06:35:46;;;;;;;9.57;7.05;;;14.40;98.10;;;;;;5016205;28;20202;-60
2022/08/07 06:38:13;;;;;;;12.13;7.38;;;14.50;96.40;;;;;;5003172;28;20209;-61
2022/08/07 06:40:46;;;;;;;11.65;7.93;;;14.50;96.30;;;;;;5020157;28;20574;-61
2022/08/07 06:43:15;;;;;;;9.82;6.60;;;14.60;96.40;;;;;;5010898;28;20190;-60
2022/08/07 06:45:42;;;;;;;10.88;7.95;;;14.60;94.70;;;;;;5006120;28;20202;-61
2022/08/07 06:48:09;;;;;;;10.43;6.82;;;14.70;94.60;;;;;;5014422;28;20198;-61
2022/08/07 06:50:40;;;;;;;13.30;7.70;;;14.70;93.10;;;;;;5016944;28;20222;-61
2022/08/07 06:53:08;;;;;;;12.00;7.90;;;15.00;92.80;;;;;;4995551;28;20753;-61
2022/08/07 06:55:36;;;;;;;13.52;8.48;;;14.80;91.70;;;;;;5012357;28;20199;-61
2022/08/07 06:58:07;;;;;;;10.63;6.93;;;13.80;89.60;;;;;;5015082;28;20213;-61
2022/08/07 07:00:36;;;;;;;12.80;7.00;;;14.90;89.50;;;;;;5000839;28;20209;-61
2022/08/07 07:03:04;;;;;;;12.13;7.75;;;14.90;86.80;;;;;;5013159;28;20240;-61
2022/08/07 07:05:31;;;;;;;11.93;7.82;;;15.00;85.90;;;;;;5018349;28;20691;-61
2022/08/07 07:07:58;;;;;;;14.25;7.93;;;15.00;84.20;;;;;;4989517;28;20210;-61
2022/08/07 07:10:29;;;;;;;13.18;8.05;;;15.10;81.30;;;;;;5017465;28;20226;-61
2022/08/07 07:12:59;;;;;;;9.85;7.57;;;15.20;78.70;;;;;;5015473;28;20199;-62
2022/08/07 07:15:31;;;;;;;11.88;7.63;;;13.20;73.20;;;;;;5008003;28;20659;-61
2022/08/07 07:18:03;;;;;;;10.88;6.75;;;15.30;74.20;;;;;;5015546;28;20230;-61
2022/08/07 07:20:35;;;;;;;9.70;7.07;;;15.30;64.80;;;;;;5018181;28;20237;-61
2022/08/07 07:23:03;;;;;;;7.80;6.00;;;15.30;57.50;;;;;;4990598;28;20996;-61
2022/08/07 07:25:31;;;;;;;12.15;6.32;;;15.70;53.30;;;;;;5016849;28;20194;-61
2022/08/07 07:28:02;;;;;;;7.93;6.07;;;15.40;52.40;;;;;;5014223;28;20202;-61
2022/08/07 07:30:35;;;;;;;12.07;6.30;;;15.40;45.40;;;;;;5014343;28;20249;-61
2022/08/07 07:33:03;;;;;;;9.15;5.88;;;15.40;43.70;;;;;;5007153;28;20206;-61
2022/08/07 07:35:33;;;;;;;8.82;5.78;;;15.50;28.90;;;;;;5016859;28;20205;-61
2022/08/07 07:38:02;;;;;;;15.10;5.75;;;15.60;30.50;;;;;;5005323;28;20198;-61
2022/08/07 07:40:32;;;;;;;7.53;5.68;;;15.60;27.70;;;;;;4991505;28;20269;-61
2022/08/07 07:43:02;;;;;;;8.90;6.22;;;12.70;27.10;;;;;;5011920;28;20294;-61
2022/08/07 07:45:32;;;;;;;10.85;5.80;;;15.70;27.00;;;;;;5016373;28;20248;-61
2022/08/07 07:48:00;;;;;;;6.75;5.35;;;15.80;24.30;;;;;;5013475;28;20202;-61
2022/08/07 07:50:29;;;;;;;10.52;6.50;;;15.80;24.80;;;;;;5014067;28;20232;-61
2022/08/07 07:52:57;;;;;;;7.60;5.35;;;15.80;18.80;;;;;;5007498;28;20241;-61
2022/08/07 07:55:27;;;;;;;7.13;5.95;;;15.90;18.30;;;;;;4991619;28;20210;-61
2022/08/07 07:57:55;;;;;;;9.93;6.65;;;15.90;18.40;;;;;;5015555;28;20202;-61
2022/08/07 08:00:25;;;;;;;11.15;6.63;;;16.00;18.70;;;;;;5005612;28;20234;-61
2022/08/07 08:02:57;;;;;;;9.15;6.60;;;16.00;17.50;;;;;;5009875;28;20664;-61
2022/08/07 08:05:25;;;;;;;8.25;5.95;;;16.00;12.60;;;;;;5014705;28;20197;-61
2022/08/07 08:07:52;;;;;;;8.55;6.10;;;16.10;12.90;;;;;;5017491;28;20581;-61
2022/08/07 08:10:21;;;;;;;7.65;5.45;;;16.20;1.00;;;;;;4993830;28;20279;-61
2022/08/07 08:12:49;;;;;;;6.70;5.32;;;16.50;1.00;;;;;;5013815;28;20202;-61
2022/08/07 08:15:16;;;;;;;6.93;5.68;;;15.90;2.40;;;;;;5007982;28;20667;-61
2022/08/07 08:17:45;;;;;;;7.80;5.00;;;16.20;2.00;;;;;;5011180;28;20260;-61
2022/08/07 08:20:15;;;;;;;7.40;5.22;;;16.20;1.00;;;;;;5014641;28;20198;-61
2022/08/07 08:28:19;;;;;;;5.95;4.97;;;16.40;1.00;;;;;;5013947;28;20612;-60
2022/08/07 08:30:47;;;;;;;7.25;5.47;;;16.40;1.00;;;;;;5007719;28;20225;-61
2022/08/07 08:33:17;;;;;;;5.35;4.57;;;16.40;1.00;;;;;;5016174;28;20201;-61
2022/08/07 08:35:49;;;;;;;6.93;5.03;;;16.50;1.00;;;;;;5012083;28;21143;-61
2022/08/07 08:38:19;;;;;;;7.28;4.80;;;16.50;1.00;;;;;;5008752;28;20198;-62
2022/08/07 08:40:50;;;;;;;5.15;4.13;;;16.30;1.00;;;;;;5014558;28;20213;-61
2022/08/07 08:43:23;;;;;;;9.40;5.43;;;16.50;1.00;;;;;;4995505;28;20199;-61
2022/08/07 08:45:56;;;;;;;7.93;5.13;;;16.80;1.00;;;;;;5008407;28;20202;-61
2022/08/07 08:48:31;;;;;;;7.07;4.90;;;16.60;1.00;;;;;;5012207;28;20213;-61
2022/08/07 08:51:04;;;;;;;7.45;4.53;;;16.70;1.00;;;;;;5018403;28;20221;-61
2022/08/07 08:53:37;;;;;;;8.80;5.50;;;16.70;1.00;;;;;;5015807;28;20569;-61
2022/08/07 08:56:09;;;;;;;5.97;4.47;;;16.70;1.00;;;;;;5008548;28;20202;-61
2022/08/07 08:58:48;;;;;;;6.90;4.70;;;16.80;1.00;;;;;;4996125;28;20954;-61
2022/08/07 09:01:22;;;;;;;8.93;4.82;;;16.80;1.00;;;;;;5014247;28;20655;-61
2022/08/07 09:03:55;;;;;;;6.70;4.90;;;16.90;1.00;;;;;;5019493;28;20213;-61
2022/08/07 09:06:35;;;;;;;6.20;4.25;;;17.30;1.00;;;;;;5017721;28;20569;-61
2022/08/07 09:09:08;;;;;;;7.20;5.15;;;17.10;1.00;;;;;;5018699;28;20194;-61
2022/08/07 09:11:41;;;;;;;7.88;5.13;;;17.20;99.90;;;;;;5016763;28;20236;-61
2022/08/07 09:14:13;;;;;;;6.47;4.95;;;17.30;99.90;;;;;;5001157;28;20218;-61
2022/08/07 09:16:51;;;;;;;6.30;5.32;;;17.50;1.00;;;;;;5017162;28;20369;-61
2022/08/07 09:19:24;;;;;;;9.10;5.05;;;17.40;1.00;;;;;;5009405;28;20865;-61
2022/08/07 09:22:06;;;;;;;7.07;5.10;;;17.40;1.00;;;;;;5015467;28;20203;-61
2022/08/07 09:24:45;;;;;;;7.05;4.90;;;17.60;1.00;;;;;;5014571;28;20201;-61
2022/08/07 09:27:23;;;;;;;11.40;4.85;;;17.80;1.00;;;;;;5003754;28;20221;-61
2022/08/07 09:29:58;;;;;;;8.68;4.57;;;17.90;99.90;;;;;;5018825;28;20256;-61
2022/08/07 09:32:39;;;;;;;9.23;5.47;;;17.90;99.90;;;;;;5008554;28;20194;-61
2022/08/07 09:35:14;;;;;;;7.38;5.40;;;18.10;99.90;;;;;;5018872;28;20198;-61
2022/08/07 09:37:45;;;;;;;8.07;4.97;;;18.10;99.90;;;;;;5015934;28;20386;-61
2022/08/07 09:40:20;;;;;;;7.57;4.63;;;18.20;99.90;;;;;;5018677;28;20201;-61
2022/08/07 09:42:56;;;;;;;9.07;5.63;;;18.20;99.90;;;;;;4991005;28;20236;-61
2022/08/07 09:45:37;;;;;;;9.90;5.85;;;18.20;99.90;;;;;;5015927;28;20686;-61
2022/08/07 09:48:13;;;;;;;7.32;4.60;;;18.30;99.90;;;;;;5017504;28;20569;-61
2022/08/07 09:50:52;;;;;;;8.43;5.55;;;18.30;99.90;;;;;;5017813;28;20222;-61
2022/08/07 09:53:24;;;;;;;4.95;4.32;;;18.50;1.00;;;;;;5013561;28;20194;-61
2022/08/07 09:56:12;;;;;;;6.10;4.57;;;18.60;99.90;;;;;;5014513;28;20203;-61
2022/08/07 09:59:03;;;;;;;5.63;4.22;;;18.40;99.90;;;;;;4989115;28;20268;-61
2022/08/07 10:01:55;;;;;;;5.78;4.28;;;18.30;1.00;;;;;;5006805;28;20574;-61
2022/08/07 10:04:33;;;;;;;7.40;4.57;;;18.40;99.90;;;;;;5016859;28;20281;-61
2022/08/07 10:07:21;;;;;;;8.82;4.70;;;18.40;99.90;;;;;;5016560;28;20190;-61
2022/08/07 10:10:09;;;;;;;5.90;5.03;;;18.40;99.90;;;;;;5016478;28;20209;-61
2022/08/07 10:12:51;;;;;;;7.10;4.70;;;18.40;28.20;;;;;;5007600;28;20210;-61
2022/08/07 10:15:40;;;;;;;11.07;5.07;;;18.40;1.00;;;;;;4993720;28;20225;-61
2022/08/07 10:18:40;;;;;;;7.57;5.03;;;18.50;1.00;;;;;;5013945;28;20233;-61
2022/08/07 10:21:26;;;;;;;9.63;5.05;;;18.50;1.00;;;;;;5016087;28;20198;-61
2022/08/07 10:24:04;;;;;;;6.18;5.00;;;18.40;1.00;;;;;;5015175;28;20209;-61
2022/08/07 10:26:47;;;;;;;10.93;5.10;;;18.50;99.90;;;;;;5010869;28;20659;-61
2022/08/07 10:29:47;;;;;;;7.25;4.70;;;18.50;99.90;;;;;;4995482;28;20213;-61
2022/08/07 10:32:24;;;;;;;5.80;4.57;;;18.70;1.00;;;;;;4970658;28;20202;-61
2022/08/07 10:35:06;;;;;;;4.75;3.85;;;18.60;1.00;;;;;;5016234;28;20202;-61
2022/08/07 10:37:41;;;;;;;5.32;4.35;;;18.60;99.90;;;;;;5013477;28;20198;-61
2022/08/07 10:40:14;;;;;;;4.20;3.80;;;18.50;1.00;;;;;;5016375;28;20207;-61
2022/08/07 10:42:56;;;;;;;4.93;3.63;;;18.80;1.00;;;;;;5011322;28;20676;-61
2022/08/07 10:45:27;;;;;;;4.80;4.00;;;19.00;99.90;;;;;;4988098;28;20213;-61
2022/08/07 10:48:05;;;;;;;7.65;3.80;;;19.10;99.90;;;;;;5011321;28;20979;-61
2022/08/07 10:50:35;;;;;;;9.27;4.28;;;19.40;26.00;;;;;;5013262;28;20229;-61
2022/08/07 10:53:09;;;;;;;4.65;4.15;;;19.50;80.70;;;;;;5013606;28;20564;-62
2022/08/07 10:55:45;;;;;;;6.28;3.90;;;19.70;99.90;;;;;;5015687;28;20209;-62
2022/08/07 10:58:38;;;;;;;5.55;3.80;;;19.70;1.00;;;;;;5017726;28;20276;-62
2022/08/07 11:01:22;;;;;;;6.50;3.92;;;19.70;1.00;;;;;;4987402;28;20212;-63
2022/08/07 11:03:55;;;;;;;4.78;3.47;;;19.80;1.00;;;;;;5012556;28;20198;-62
2022/08/07 11:06:28;;;;;;;6.35;3.28;;;19.90;99.90;;;;;;5017463;28;20545;-62
2022/08/07 11:09:02;;;;;;;7.38;3.80;;;19.80;1.00;;;;;;5010985;28;20201;-63
2022/08/07 11:11:35;;;;;;;4.03;3.60;;;20.00;1.00;;;;;;5017645;28;20230;-62
2022/08/07 11:14:13;;;;;;;5.68;3.75;;;20.00;1.00;;;;;;5015236;28;20656;-62
2022/08/07 11:16:46;;;;;;;5.90;4.20;;;19.90;1.00;;;;;;4994074;28;20213;-62
2022/08/07 11:19:20;;;;;;;6.07;3.53;;;20.00;1.00;;;;;;5016313;28;20206;-62
2022/08/07 11:21:53;;;;;;;4.07;3.67;;;20.10;1.00;;;;;;5008401;28;21087;-62
2022/08/07 11:24:25;;;;;;;3.92;3.05;;;20.00;1.00;;;;;;5014351;28;20209;-63
2022/08/07 11:27:09;;;;;;;4.43;3.45;;;19.80;1.00;;;;;;4988486;28;21042;-62
2022/08/07 11:29:43;;;;;;;5.93;3.40;;;19.70;1.00;;;;;;4999844;28;20348;-63
2022/08/07 11:32:15;;;;;;;6.43;3.60;;;19.70;1.00;;;;;;4994622;28;20240;-63
2022/08/07 11:34:47;;;;;;;6.72;3.72;;;19.90;1.00;;;;;;4988211;28;20248;-63
2022/08/07 11:37:37;;;;;;;3.53;2.90;;;19.80;1.00;;;;;;5002630;28;20845;-62
2022/08/07 11:40:13;;;;;;;5.47;3.70;;;19.80;1.00;;;;;;5011172;28;20205;-62
2022/08/07 11:42:51;;;;;;;4.43;3.15;;;19.90;1.00;;;;;;5001801;28;20969;-62
2022/08/07 11:45:28;;;;;;;4.63;3.47;;;19.90;1.00;;;;;;5014409;28;20226;-61
2022/08/07 11:48:16;;;;;;;6.25;3.50;;;20.20;99.90;;;;;;4995019;28;20210;-61
2022/08/07 11:50:53;;;;;;;5.40;3.33;;;20.20;99.90;;;;;;4990906;28;21235;-61
2022/08/07 11:53:31;;;;;;;3.40;3.10;;;20.10;99.90;;;;;;5007809;28;20218;-62
2022/08/07 11:56:15;;;;;;;4.47;3.35;;;20.00;99.90;;;;;;5009037;28;20218;-62
2022/08/07 11:58:56;;;;;;;5.95;3.33;;;20.00;99.90;;;;;;4987669;28;20412;-62
2022/08/07 12:01:49;;;;;;;8.88;3.83;;;20.10;99.90;;;;;;5006468;28;20201;-63
2022/08/07 12:04:36;;;;;;;6.25;3.53;;;20.00;99.90;;;;;;5009580;28;20587;-62
2022/08/07 12:07:10;;;;;;;6.72;3.50;;;20.10;99.90;;;;;;5013416;28;20205;-63
2022/08/07 12:09:45;;;;;;;3.83;3.28;;;20.10;99.90;;;;;;5010753;28;20202;-62
2022/08/07 12:12:17;;;;;;;4.47;3.55;;;20.40;99.90;;;;;;5013051;28;20233;-63
2022/08/07 12:14:48;;;;;;;4.88;3.60;;;20.30;99.90;;;;;;4998670;28;20209;-63
2022/08/07 12:17:20;;;;;;;6.15;3.63;;;19.60;99.90;;;;;;5012088;28;20221;-62
2022/08/07 12:19:53;;;;;;;5.55;3.13;;;20.20;99.90;;;;;;4993491;28;20210;-62
2022/08/07 12:22:27;;;;;;;4.03;3.35;;;20.10;99.90;;;;;;4995534;28;20210;-62
2022/08/07 12:27:49;;;;;;;3.95;3.50;;;20.40;99.90;;;;;;5008370;28;20680;-63
2022/08/07 12:30:18;;;;;;;5.47;3.45;;;20.50;99.90;;;;;;5007812;28;20198;-62
2022/08/07 12:32:54;;;;;;;6.10;3.38;;;21.10;45.80;;;;;;5009726;28;20236;-62
2022/08/07 12:35:25;;;;;;;8.75;3.40;;;20.70;91.50;;;;;;4995457;28;20204;-63
2022/08/07 12:37:54;;;;;;;3.95;3.38;;;20.60;13.60;;;;;;4993166;28;20291;-62
2022/08/07 12:40:24;;;;;;;6.00;3.70;;;20.50;1.00;;;;;;5016218;28;20563;-62
2022/08/07 12:42:53;;;;;;;4.70;3.08;;;20.50;1.00;;;;;;5015899;28;20857;-63
2022/08/07 12:45:25;;;;;;;3.97;3.20;;;20.40;1.00;;;;;;5020526;28;20637;-62
2022/08/07 12:47:58;;;;;;;4.05;3.00;;;20.80;1.00;;;;;;5012721;28;20217;-62
2022/08/07 12:50:33;;;;;;;3.92;3.30;;;20.60;1.00;;;;;;5016716;28;20635;-62
2022/08/07 12:53:04;;;;;;;3.85;3.45;;;20.60;1.00;;;;;;4998864;28;20521;-62
2022/08/07 12:55:37;;;;;;;3.50;2.90;;;20.60;1.00;;;;;;5014814;28;20202;-62
2022/08/07 12:58:06;;;;;;;4.03;3.28;;;21.60;1.00;;;;;;5014696;28;20723;-62
2022/08/07 13:00:42;;;;;;;3.55;3.25;;;20.60;1.00;;;;;;5014981;28;20194;-61
2022/08/07 13:03:26;;;;;;;6.40;2.97;;;21.00;1.00;;;;;;5014340;28;20206;-61
2022/08/07 13:06:09;;;;;;;3.40;3.00;;;20.90;1.00;;;;;;5011370;28;20202;-63
2022/08/07 13:08:51;;;;;;;4.07;3.47;;;20.80;1.00;;;;;;4992372;28;20209;-63
2022/08/07 13:11:33;;;;;;;4.60;3.67;;;20.80;1.00;;;;;;5015429;28;20324;-62
2022/08/07 13:14:07;;;;;;;6.38;3.35;;;20.60;1.00;;;;;;5017760;28;20388;-62
2022/08/07 13:16:41;;;;;;;3.50;3.20;;;20.60;1.00;;;;;;5014289;28;20611;-63